Time;durP1;ratioP1;P1;durP2;ratioP2;P2;SDS_P1;SDS_P2;PMS_P1;PMS_P2;Temp;Humidity;BMP_temperature;BMP_pressure;BME280_temperature;BME280_humidity;BME280_pressure;Samples;Min_cycle;Max_cycle;Signal;HPM_P1;HPM_P2
2024/04/19 00:01:59;;;;;;;4.47;2.45;;;9.20;99.70;;;;;;5322952;26;20008;-83
2024/04/19 00:04:25;;;;;;;2.97;2.33;;;9.20;99.80;;;;;;5313963;26;19985;-84
2024/04/19 00:06:50;;;;;;;4.00;2.60;;;9.20;99.90;;;;;;5343593;26;19997;-82
2024/04/19 00:09:16;;;;;;;5.72;3.00;;;9.10;99.90;;;;;;5367160;26;20060;-82
2024/04/19 00:11:50;;;;;;;4.60;3.30;;;9.10;99.90;;;;;;5295572;26;20005;-82
2024/04/19 00:14:16;;;;;;;4.43;3.10;;;9.10;99.90;;;;;;5321091;26;20004;-82
2024/04/19 00:16:43;;;;;;;6.72;2.80;;;9.10;99.90;;;;;;5351963;26;20012;-82
2024/04/19 00:19:09;;;;;;;5.15;3.08;;;9.00;99.90;;;;;;5298821;26;19993;-84
2024/04/19 00:21:34;;;;;;;4.95;3.00;;;9.10;99.90;;;;;;5283818;26;20097;-83
2024/04/19 00:24:00;;;;;;;5.03;3.08;;;9.00;99.90;;;;;;5289875;26;20008;-83
2024/04/19 00:26:26;;;;;;;4.13;2.83;;;9.00;99.90;;;;;;5307163;26;20099;-83
2024/04/19 00:28:54;;;;;;;4.13;2.70;;;9.00;99.90;;;;;;5341253;26;19993;-83
2024/04/19 00:31:19;;;;;;;4.38;2.53;;;9.00;99.90;;;;;;5290066;26;20052;-82
2024/04/19 00:33:45;;;;;;;4.78;2.70;;;9.00;99.90;;;;;;5326739;26;20013;-82
2024/04/19 00:36:11;;;;;;;3.40;2.67;;;9.00;99.90;;;;;;5319244;26;20078;-82
2024/04/19 00:38:36;;;;;;;3.05;2.50;;;8.90;99.90;;;;;;5363711;26;20012;-82
2024/04/19 00:41:02;;;;;;;5.57;2.47;;;8.90;99.90;;;;;;5287373;26;20033;-84
2024/04/19 00:43:28;;;;;;;3.50;2.45;;;8.90;99.90;;;;;;5289423;26;20008;-83
2024/04/19 00:45:55;;;;;;;5.15;3.10;;;9.00;99.90;;;;;;5316997;26;20479;-83
2024/04/19 00:48:22;;;;;;;3.53;2.90;;;9.00;99.90;;;;;;5345115;26;19996;-82
2024/04/19 00:51:00;;;;;;;6.57;2.90;;;9.00;99.90;;;;;;5318048;26;20001;-83
2024/04/19 00:53:29;;;;;;;5.05;2.83;;;9.00;99.90;;;;;;5322435;26;20008;-82
2024/04/19 00:56:01;;;;;;;4.40;2.67;;;9.00;99.90;;;;;;5345681;26;20001;-82
2024/04/19 00:58:28;;;;;;;4.75;2.97;;;9.00;99.90;;;;;;5325566;26;20440;-82
2024/04/19 01:00:55;;;;;;;3.35;2.90;;;9.00;99.90;;;;;;5317481;26;20070;-82
2024/04/19 01:03:21;;;;;;;3.83;3.10;;;9.00;99.90;;;;;;5375802;26;20015;-83
2024/04/19 01:05:49;;;;;;;2.70;2.38;;;9.00;99.90;;;;;;5340461;26;20024;-82
2024/04/19 01:08:15;;;;;;;3.65;2.97;;;9.10;99.90;;;;;;5349414;26;20012;-82
2024/04/19 01:10:42;;;;;;;4.10;2.88;;;9.10;99.90;;;;;;5323122;26;20004;-82
2024/04/19 01:13:08;;;;;;;3.35;2.60;;;9.10;99.90;;;;;;5383320;26;20007;-82
2024/04/19 01:15:36;;;;;;;4.00;2.35;;;9.10;99.90;;;;;;5351377;26;20483;-82
2024/04/19 01:18:02;;;;;;;2.97;2.47;;;9.20;99.90;;;;;;5350416;26;20331;-82
2024/04/19 01:20:28;;;;;;;6.35;3.20;;;9.20;99.90;;;;;;5352519;26;20071;-82
2024/04/19 01:22:54;;;;;;;3.78;3.35;;;9.10;99.90;;;;;;5323451;26;20000;-82
2024/04/19 01:25:33;;;;;;;4.40;2.85;;;9.10;99.90;;;;;;5290165;26;20020;-82
2024/04/19 01:27:59;;;;;;;3.78;2.75;;;9.20;99.90;;;;;;5326827;26;20004;-82
2024/04/19 01:30:25;;;;;;;4.82;3.17;;;9.10;99.90;;;;;;5354393;26;20004;-82
2024/04/19 01:32:51;;;;;;;4.00;2.90;;;9.20;99.90;;;;;;5375426;26;19984;-82
2024/04/19 01:35:16;;;;;;;3.55;2.90;;;9.20;99.90;;;;;;5353521;26;20001;-83
2024/04/19 01:37:42;;;;;;;3.65;2.55;;;9.20;99.90;;;;;;5295866;26;20017;-81
2024/04/19 01:40:08;;;;;;;4.97;3.30;;;9.10;99.90;;;;;;5313045;26;20001;-82
2024/04/19 01:42:34;;;;;;;5.25;2.80;;;9.20;99.90;;;;;;5260454;26;20001;-81
2024/04/19 01:44:59;;;;;;;4.82;2.92;;;9.20;99.90;;;;;;5275687;26;20463;-82
2024/04/19 01:47:27;;;;;;;3.75;2.90;;;9.20;99.90;;;;;;5296618;26;20000;-82
2024/04/19 01:49:53;;;;;;;6.18;3.40;;;9.20;99.90;;;;;;5383222;26;20000;-82
2024/04/19 01:52:19;;;;;;;4.55;2.92;;;9.20;99.90;;;;;;5294244;26;20015;-82
2024/04/19 01:54:44;;;;;;;5.28;3.28;;;9.20;99.90;;;;;;5336164;26;19993;-81
2024/04/19 01:57:10;;;;;;;4.00;3.17;;;9.20;99.90;;;;;;5291256;26;20502;-82
2024/04/19 01:59:36;;;;;;;5.47;2.83;;;9.20;99.90;;;;;;5317624;26;19993;-82
2024/04/19 02:02:02;;;;;;;3.83;2.83;;;9.30;99.90;;;;;;5302735;26;20037;-82
2024/04/19 02:04:28;;;;;;;4.13;3.05;;;9.30;99.90;;;;;;5369791;26;20423;-82
2024/04/19 02:06:53;;;;;;;4.80;2.88;;;9.30;99.90;;;;;;5380617;26;20421;-82
2024/04/19 02:09:19;;;;;;;4.82;3.05;;;9.30;99.90;;;;;;5289514;26;19997;-81
2024/04/19 02:11:45;;;;;;;4.45;2.80;;;9.20;99.90;;;;;;5316909;26;20096;-82
2024/04/19 02:14:10;;;;;;;3.92;2.90;;;9.30;99.90;;;;;;5340149;26;20436;-82
2024/04/19 02:16:36;;;;;;;3.50;3.10;;;9.30;99.90;;;;;;5316327;26;20321;-82
2024/04/19 02:19:01;;;;;;;6.45;3.83;;;9.30;99.90;;;;;;5339569;26;20041;-82
2024/04/19 02:21:27;;;;;;;5.22;3.47;;;9.30;99.90;;;;;;5345043;26;20074;-82
2024/04/19 02:23:54;;;;;;;5.32;3.40;;;9.30;99.90;;;;;;5345542;26;20074;-82
2024/04/19 02:26:22;;;;;;;5.57;3.80;;;9.20;99.90;;;;;;5343108;26;20001;-82
2024/04/19 02:31:32;;;;;;;4.07;3.03;;;9.20;99.90;;;;;;5326864;26;20068;-82
2024/04/19 02:33:57;;;;;;;4.78;2.95;;;9.20;99.90;;;;;;5326498;26;20010;-82
2024/04/19 02:36:23;;;;;;;5.60;2.97;;;9.20;99.90;;;;;;5286990;27;19993;-82
2024/04/19 02:38:49;;;;;;;6.40;3.65;;;9.30;99.90;;;;;;5289846;26;20058;-83
2024/04/19 02:41:14;;;;;;;4.05;3.10;;;9.20;99.90;;;;;;5340362;26;20440;-84
2024/04/19 02:43:46;;;;;;;5.13;2.75;;;9.20;99.90;;;;;;5338026;26;20001;-82
2024/04/19 02:46:12;;;;;;;3.55;2.40;;;9.10;99.90;;;;;;5321895;26;20451;-82
2024/04/19 02:48:38;;;;;;;3.95;2.83;;;9.20;99.90;;;;;;5313231;26;20041;-82
2024/04/19 02:51:03;;;;;;;3.53;2.63;;;9.20;99.90;;;;;;5313507;26;20658;-82
2024/04/19 02:53:31;;;;;;;4.50;2.80;;;9.20;99.90;;;;;;5344202;26;20016;-83
2024/04/19 02:55:58;;;;;;;8.10;3.10;;;9.20;99.90;;;;;;5318778;26;20001;-82
2024/04/19 02:58:24;;;;;;;4.97;2.90;;;9.20;99.90;;;;;;5320964;26;20004;-81
2024/04/19 03:00:49;;;;;;;3.10;2.72;;;9.10;99.90;;;;;;5343056;26;19994;-82
2024/04/19 03:03:15;;;;;;;3.72;2.35;;;9.20;99.90;;;;;;5345568;26;19993;-81
2024/04/19 03:05:41;;;;;;;3.45;2.53;;;9.20;99.90;;;;;;5364069;26;19997;-83
2024/04/19 03:08:06;;;;;;;3.38;2.70;;;9.20;99.90;;;;;;5355966;26;19998;-82
2024/04/19 03:10:37;;;;;;;3.08;2.40;;;9.20;99.90;;;;;;5319913;26;20020;-82
2024/04/19 03:13:03;;;;;;;6.07;2.80;;;9.20;99.90;;;;;;5344678;26;20021;-82
2024/04/19 03:15:29;;;;;;;4.45;2.60;;;9.20;99.90;;;;;;5290287;26;20001;-82
2024/04/19 03:17:54;;;;;;;3.88;2.80;;;9.20;99.90;;;;;;5308400;26;20074;-82
2024/04/19 03:20:20;;;;;;;3.83;2.50;;;9.20;99.90;;;;;;5298604;26;20366;-82
2024/04/19 03:22:45;;;;;;;2.92;2.42;;;9.20;99.90;;;;;;5307576;27;20432;-80
2024/04/19 03:25:12;;;;;;;3.40;2.33;;;9.20;99.90;;;;;;5346357;26;20005;-82
2024/04/19 03:27:38;;;;;;;3.05;2.58;;;9.20;99.90;;;;;;5340409;26;19998;-81
2024/04/19 03:30:05;;;;;;;4.65;2.97;;;9.10;99.90;;;;;;5280196;26;20080;-81
2024/04/19 03:32:30;;;;;;;3.30;2.58;;;9.20;99.90;;;;;;5332503;26;20449;-82
2024/04/19 03:34:57;;;;;;;4.05;2.67;;;9.20;99.90;;;;;;5352605;26;20025;-82
2024/04/19 03:37:22;;;;;;;3.38;2.70;;;9.10;99.90;;;;;;5375726;26;20003;-81
2024/04/19 03:39:48;;;;;;;4.05;2.90;;;9.10;99.90;;;;;;5348763;26;20320;-82
2024/04/19 03:42:18;;;;;;;4.30;2.60;;;9.10;99.90;;;;;;5307074;26;20315;-82
2024/04/19 03:47:28;;;;;;;3.22;2.80;;;9.10;99.90;;;;;;5349242;26;20057;-82
2024/04/19 03:49:53;;;;;;;4.07;3.05;;;9.10;99.90;;;;;;5332746;26;20455;-82
2024/04/19 03:52:19;;;;;;;4.13;3.03;;;9.00;99.90;;;;;;5319876;26;20079;-82
2024/04/19 03:54:45;;;;;;;4.07;3.10;;;9.00;99.90;;;;;;5336901;26;20040;-82
2024/04/19 03:57:10;;;;;;;4.53;2.88;;;9.00;99.90;;;;;;5344299;26;20431;-82
2024/04/19 03:59:38;;;;;;;3.45;3.08;;;9.00;99.90;;;;;;5336673;26;20001;-82
2024/04/19 04:02:04;;;;;;;3.80;3.40;;;9.10;99.90;;;;;;5321424;26;20000;-82
2024/04/19 04:04:29;;;;;;;3.65;3.13;;;9.10;99.90;;;;;;5316726;26;20451;-82
2024/04/19 04:06:55;;;;;;;3.60;3.05;;;9.10;99.90;;;;;;5323243;26;20005;-82
2024/04/19 04:09:21;;;;;;;3.70;3.22;;;9.00;99.90;;;;;;5304910;26;20004;-82
2024/04/19 04:11:46;;;;;;;4.05;3.50;;;9.10;99.90;;;;;;5293875;26;20037;-82
2024/04/19 04:14:12;;;;;;;3.72;2.90;;;9.00;99.90;;;;;;5289211;26;20317;-81
2024/04/19 04:16:37;;;;;;;3.83;3.40;;;9.10;99.90;;;;;;5323733;26;19996;-82
2024/04/19 04:19:03;;;;;;;3.70;2.90;;;9.10;99.90;;;;;;5353328;26;20015;-82
2024/04/19 04:21:32;;;;;;;5.13;3.53;;;9.10;99.90;;;;;;5329188;26;20009;-81
2024/04/19 04:23:57;;;;;;;3.40;3.10;;;9.20;99.90;;;;;;5348311;26;20000;-82
2024/04/19 04:26:38;;;;;;;3.28;2.92;;;9.10;99.90;;;;;;5339486;26;20336;-82
2024/04/19 04:29:03;;;;;;;4.05;2.80;;;9.20;99.90;;;;;;5322036;26;20014;-81
2024/04/19 04:31:29;;;;;;;3.15;2.90;;;9.20;99.90;;;;;;5357878;26;20000;-83
2024/04/19 04:33:55;;;;;;;2.92;2.63;;;9.20;99.90;;;;;;5365735;26;20065;-82
2024/04/19 04:36:20;;;;;;;2.72;2.45;;;9.20;99.90;;;;;;5310700;26;20330;-82
2024/04/19 04:38:46;;;;;;;2.78;2.58;;;9.20;99.90;;;;;;5319027;26;20005;-81
2024/04/19 04:41:12;;;;;;;2.90;2.60;;;9.30;99.90;;;;;;5296616;27;19998;-81
2024/04/19 04:43:39;;;;;;;2.60;2.40;;;9.30;99.90;;;;;;5306943;26;20070;-82
2024/04/19 04:46:05;;;;;;;2.58;2.35;;;9.30;99.90;;;;;;5349015;26;20072;-81
2024/04/19 04:48:31;;;;;;;2.33;1.85;;;9.30;99.90;;;;;;5327895;26;20001;-81
2024/04/19 04:50:59;;;;;;;2.05;1.95;;;9.30;99.90;;;;;;5329151;26;20001;-81
2024/04/19 04:53:25;;;;;;;2.38;2.00;;;9.30;99.90;;;;;;5331326;26;20001;-81
2024/04/19 04:55:53;;;;;;;2.35;1.85;;;9.30;99.90;;;;;;5291165;27;20001;-81
2024/04/19 04:58:18;;;;;;;2.30;2.10;;;9.30;99.90;;;;;;5308661;26;20456;-81
2024/04/19 05:00:46;;;;;;;2.00;1.80;;;9.30;99.90;;;;;;5330950;26;19992;-81
2024/04/19 05:03:12;;;;;;;1.50;1.40;;;9.40;99.90;;;;;;5306761;26;20103;-82
2024/04/19 05:05:39;;;;;;;2.00;1.73;;;9.40;99.90;;;;;;5320541;26;20044;-82
2024/04/19 05:08:04;;;;;;;1.90;1.70;;;9.40;99.90;;;;;;5327686;26;20405;-81
2024/04/19 05:10:30;;;;;;;2.00;1.85;;;9.40;99.90;;;;;;5337964;26;20071;-82
2024/04/19 05:12:57;;;;;;;2.20;1.70;;;9.50;99.90;;;;;;5340671;26;20007;-82
2024/04/19 05:15:23;;;;;;;1.73;1.63;;;9.50;99.90;;;;;;5317440;26;20436;-81
2024/04/19 05:17:49;;;;;;;1.80;1.52;;;9.50;99.90;;;;;;5345150;26;20008;-81
2024/04/19 05:20:15;;;;;;;1.90;1.70;;;9.60;99.90;;;;;;5345187;26;20452;-81
2024/04/19 05:22:41;;;;;;;1.80;1.40;;;9.50;99.90;;;;;;5320632;26;20045;-81
2024/04/19 05:25:07;;;;;;;2.28;1.40;;;9.60;99.90;;;;;;5266986;26;20421;-81
2024/04/19 05:27:33;;;;;;;1.30;1.20;;;9.60;99.90;;;;;;5327920;26;19994;-81
2024/04/19 05:30:02;;;;;;;2.55;1.58;;;9.70;99.90;;;;;;5312860;26;20315;-81
2024/04/19 05:32:27;;;;;;;1.40;1.30;;;9.70;99.90;;;;;;5311734;27;19993;-82
2024/04/19 05:34:54;;;;;;;1.60;1.50;;;9.70;99.90;;;;;;5313082;26;20490;-82
2024/04/19 05:37:20;;;;;;;1.95;1.65;;;9.70;99.90;;;;;;5312353;26;19997;-81
2024/04/19 05:39:46;;;;;;;1.35;1.25;;;9.70;99.90;;;;;;5311339;27;19997;-82
2024/04/19 05:42:11;;;;;;;1.55;1.45;;;9.80;99.90;;;;;;5311827;27;19993;-81
2024/04/19 05:44:37;;;;;;;1.60;1.50;;;9.80;99.90;;;;;;5311426;27;20012;-81
2024/04/19 05:47:03;;;;;;;2.38;1.60;;;9.80;99.90;;;;;;5332029;26;20002;-83
2024/04/19 05:49:31;;;;;;;1.40;1.30;;;9.80;99.90;;;;;;5255645;27;20350;-82
2024/04/19 05:51:57;;;;;;;1.70;1.60;;;9.90;99.90;;;;;;5283864;27;20004;-81
2024/04/19 05:54:23;;;;;;;1.70;1.60;;;9.90;99.90;;;;;;5312376;27;20001;-82
2024/04/19 05:56:48;;;;;;;2.45;2.00;;;10.00;99.90;;;;;;5326114;26;20088;-82
2024/04/19 05:59:14;;;;;;;2.88;2.15;;;10.00;99.90;;;;;;5331352;26;20005;-81
2024/04/19 06:01:40;;;;;;;2.85;2.40;;;10.10;99.90;;;;;;5341450;26;19996;-81
2024/04/19 06:04:06;;;;;;;2.38;2.17;;;10.10;99.90;;;;;;5340591;26;20003;-81
2024/04/19 06:06:32;;;;;;;3.65;2.20;;;10.10;99.90;;;;;;5367053;26;20040;-79
2024/04/19 06:08:58;;;;;;;2.67;2.17;;;10.20;99.90;;;;;;5285125;27;20014;-81
2024/04/19 06:11:23;;;;;;;2.20;2.00;;;10.20;99.90;;;;;;5283840;27;20008;-81
2024/04/19 06:13:49;;;;;;;4.25;2.42;;;10.30;99.90;;;;;;5310939;26;20080;-81
2024/04/19 06:16:15;;;;;;;3.03;2.20;;;10.30;99.90;;;;;;5311358;27;19998;-81
2024/04/19 06:18:40;;;;;;;5.35;2.58;;;10.30;99.90;;;;;;5312114;26;20002;-81
2024/04/19 06:21:06;;;;;;;3.92;2.47;;;10.40;99.90;;;;;;5310610;27;20016;-81
2024/04/19 06:23:31;;;;;;;4.68;2.60;;;10.40;99.90;;;;;;5312563;27;20322;-82
2024/04/19 06:26:04;;;;;;;2.88;2.20;;;10.40;99.90;;;;;;5310709;27;20459;-81
2024/04/19 06:28:37;;;;;;;5.72;2.40;;;10.50;99.90;;;;;;5315135;26;20005;-81
2024/04/19 06:31:11;;;;;;;4.10;2.40;;;10.50;99.90;;;;;;5345657;26;19997;-81
2024/04/19 06:33:40;;;;;;;5.63;2.65;;;10.60;99.90;;;;;;5345274;26;20039;-81
2024/04/19 06:36:06;;;;;;;5.05;2.58;;;10.60;99.90;;;;;;5344829;26;19992;-81
2024/04/19 06:38:33;;;;;;;3.70;2.60;;;10.70;99.90;;;;;;5342679;26;20002;-81
2024/04/19 06:41:01;;;;;;;4.20;2.17;;;10.70;99.90;;;;;;5316983;26;20038;-81
2024/04/19 06:43:27;;;;;;;3.25;2.35;;;10.70;99.90;;;;;;5284673;27;19997;-81
2024/04/19 06:45:56;;;;;;;5.50;2.05;;;10.70;99.90;;;;;;5317026;26;20030;-81
2024/04/19 06:48:22;;;;;;;5.68;2.10;;;10.80;99.90;;;;;;5303105;27;20349;-80
2024/04/19 06:50:48;;;;;;;7.38;2.60;;;10.80;99.90;;;;;;5300807;27;20005;-82
2024/04/19 06:53:13;;;;;;;4.82;1.95;;;10.80;99.90;;;;;;5342849;26;20044;-82
2024/04/19 06:55:39;;;;;;;4.35;1.85;;;10.90;99.90;;;;;;5316317;26;20005;-82
2024/04/19 06:58:05;;;;;;;4.07;1.85;;;11.00;99.90;;;;;;5334847;26;20021;-82
2024/04/19 07:00:30;;;;;;;6.07;2.08;;;11.00;99.90;;;;;;5330401;26;19997;-82
2024/04/19 07:02:56;;;;;;;5.20;1.98;;;11.10;99.90;;;;;;5345843;26;20012;-81
2024/04/19 07:05:22;;;;;;;5.78;2.67;;;11.10;99.90;;;;;;5300200;27;20001;-82
2024/04/19 07:07:48;;;;;;;6.03;1.92;;;11.20;99.90;;;;;;5343481;26;20011;-82
2024/04/19 07:10:14;;;;;;;6.13;1.90;;;11.20;99.90;;;;;;5310277;26;20053;-82
2024/04/19 07:12:40;;;;;;;6.30;1.95;;;11.20;99.90;;;;;;5324555;26;20037;-82
2024/04/19 07:15:07;;;;;;;4.75;1.95;;;11.30;99.90;;;;;;5312816;26;20045;-82
2024/04/19 07:17:34;;;;;;;7.45;2.03;;;11.30;99.90;;;;;;5337727;26;20020;-82
2024/04/19 07:20:03;;;;;;;5.32;1.92;;;11.40;99.90;;;;;;5253589;27;20001;-82
2024/04/19 07:22:28;;;;;;;5.22;1.90;;;11.50;99.90;;;;;;5335986;26;20033;-82
2024/04/19 07:24:54;;;;;;;4.30;2.22;;;11.60;99.90;;;;;;5344319;26;19997;-82
2024/04/19 07:27:19;;;;;;;7.85;2.35;;;11.70;99.90;;;;;;5320106;26;20491;-82
2024/04/19 07:29:45;;;;;;;4.80;1.70;;;11.70;99.90;;;;;;5315742;27;19989;-82
2024/04/19 07:32:11;;;;;;;6.15;1.77;;;11.80;99.90;;;;;;5349583;26;19996;-82
2024/04/19 07:34:36;;;;;;;4.82;2.10;;;11.70;99.90;;;;;;5338859;26;20052;-80
2024/04/19 07:37:02;;;;;;;7.18;1.92;;;11.70;99.90;;;;;;5331235;26;20009;-81
2024/04/19 07:39:28;;;;;;;7.55;2.05;;;11.70;99.90;;;;;;5342827;26;20012;-80
2024/04/19 07:41:55;;;;;;;5.28;1.75;;;11.70;99.90;;;;;;5322568;26;20071;-81
2024/04/19 07:44:21;;;;;;;4.88;1.65;;;11.70;99.90;;;;;;5329511;26;20020;-81
2024/04/19 07:46:47;;;;;;;8.50;2.50;;;11.70;99.90;;;;;;5316013;26;20433;-81
2024/04/19 07:49:12;;;;;;;7.50;1.95;;;11.80;99.90;;;;;;5284484;27;20449;-81
2024/04/19 07:51:38;;;;;;;4.63;2.13;;;11.70;99.90;;;;;;5327605;26;20008;-81
2024/04/19 07:54:04;;;;;;;5.75;2.40;;;11.70;99.90;;;;;;5315282;26;20040;-81
2024/04/19 07:56:32;;;;;;;4.75;2.15;;;11.70;99.90;;;;;;5337062;26;20094;-81
2024/04/19 07:58:58;;;;;;;5.75;2.50;;;11.70;99.90;;;;;;5319680;26;20000;-81
2024/04/19 08:01:24;;;;;;;4.85;2.60;;;11.70;99.90;;;;;;5329436;26;20004;-81
2024/04/19 08:03:50;;;;;;;7.15;2.30;;;11.70;99.90;;;;;;5305017;27;20033;-81
2024/04/19 08:06:16;;;;;;;3.42;1.63;;;11.70;99.90;;;;;;5310496;26;20531;-81
2024/04/19 08:08:41;;;;;;;6.78;1.88;;;11.60;99.90;;;;;;5331777;26;19993;-81
2024/04/19 08:11:07;;;;;;;5.80;2.15;;;11.50;99.90;;;;;;5334872;26;20076;-81
2024/04/19 08:13:33;;;;;;;4.90;1.80;;;11.50;99.90;;;;;;5307050;26;19998;-81
2024/04/19 08:15:58;;;;;;;6.75;2.08;;;11.50;99.90;;;;;;5336444;26;19998;-81
2024/04/19 08:18:24;;;;;;;6.30;2.00;;;11.40;99.90;;;;;;5323706;26;20016;-81
2024/04/19 08:20:50;;;;;;;5.63;1.80;;;11.50;99.90;;;;;;5315756;26;19997;-81
2024/04/19 08:23:15;;;;;;;4.15;1.38;;;11.50;99.90;;;;;;5301727;27;20002;-80
2024/04/19 08:25:43;;;;;;;3.92;1.60;;;11.60;99.90;;;;;;5341098;26;20012;-80
2024/04/19 08:28:09;;;;;;;4.35;1.70;;;11.50;99.90;;;;;;5342043;26;20013;-80
2024/04/19 08:30:34;;;;;;;5.10;1.58;;;11.60;99.90;;;;;;5314410;27;19997;-81
2024/04/19 08:33:00;;;;;;;6.22;1.92;;;11.60;99.90;;;;;;5313786;26;20001;-80
2024/04/19 08:35:26;;;;;;;4.43;1.30;;;11.60;99.90;;;;;;5367378;26;20547;-81
2024/04/19 08:37:52;;;;;;;4.32;1.38;;;11.60;99.90;;;;;;5307255;26;20012;-81
2024/04/19 08:40:21;;;;;;;3.42;1.40;;;11.60;99.90;;;;;;5378197;26;20423;-81
2024/04/19 08:42:47;;;;;;;4.70;1.50;;;11.60;99.90;;;;;;5320366;26;20342;-80
2024/04/19 08:45:14;;;;;;;3.22;1.05;;;11.50;99.90;;;;;;5330517;26;20000;-81
2024/04/19 08:47:41;;;;;;;3.38;1.17;;;11.50;99.90;;;;;;5321327;26;20073;-81
2024/04/19 08:50:07;;;;;;;2.35;0.70;;;11.50;99.90;;;;;;5323705;26;20026;-81
2024/04/19 08:52:34;;;;;;;2.22;0.70;;;11.40;99.90;;;;;;5284786;26;20016;-80
2024/04/19 08:55:05;;;;;;;2.47;0.60;;;11.40;99.90;;;;;;5334515;26;20033;-81
2024/04/19 08:57:38;;;;;;;0.82;0.65;;;11.40;99.90;;;;;;5351320;26;20505;-81
2024/04/19 09:00:05;;;;;;;0.95;0.50;;;11.30;99.90;;;;;;5323611;26;20405;-81
2024/04/19 09:02:31;;;;;;;1.00;0.52;;;11.30;99.90;;;;;;5341585;26;20000;-81
2024/04/19 09:04:57;;;;;;;0.93;0.45;;;11.30;99.90;;;;;;5305968;26;20081;-81
2024/04/19 09:07:23;;;;;;;1.05;0.43;;;11.30;99.90;;;;;;5342627;26;20024;-81
2024/04/19 09:09:51;;;;;;;0.95;0.45;;;11.50;99.90;;;;;;5384147;26;20004;-81
2024/04/19 09:12:18;;;;;;;1.50;0.50;;;11.50;99.90;;;;;;5372695;26;19997;-76
2024/04/19 09:14:51;;;;;;;2.75;0.80;;;11.60;99.90;;;;;;5361537;26;19996;-80
2024/04/19 09:17:17;;;;;;;1.67;0.50;;;11.70;99.90;;;;;;5379890;26;20004;-80
2024/04/19 09:19:46;;;;;;;2.00;0.50;;;11.70;99.90;;;;;;5337035;26;20012;-82
2024/04/19 09:22:11;;;;;;;1.05;0.47;;;11.80;99.90;;;;;;5338040;26;20032;-80
2024/04/19 09:24:40;;;;;;;0.52;0.40;;;11.80;99.90;;;;;;5295913;26;20005;-80
2024/04/19 09:27:05;;;;;;;1.58;0.70;;;11.90;99.90;;;;;;5310633;26;20310;-82
2024/04/19 09:29:31;;;;;;;1.60;0.95;;;11.90;99.90;;;;;;5379802;26;20050;-80
2024/04/19 09:31:58;;;;;;;3.03;0.80;;;11.80;99.90;;;;;;5305993;26;20009;-80
2024/04/19 09:34:23;;;;;;;2.80;0.80;;;11.80;99.90;;;;;;5323149;26;20001;-81
2024/04/19 09:36:51;;;;;;;1.17;0.60;;;11.80;99.90;;;;;;5372221;26;20497;-81
2024/04/19 09:39:17;;;;;;;0.85;0.40;;;11.80;99.90;;;;;;5341606;26;20004;-81
2024/04/19 09:41:47;;;;;;;1.92;0.85;;;11.80;99.90;;;;;;5338259;26;20329;-81
2024/04/19 09:44:15;;;;;;;1.33;0.50;;;11.80;99.90;;;;;;5366105;26;20000;-80
2024/04/19 09:46:48;;;;;;;1.33;0.70;;;11.90;99.90;;;;;;5377015;26;20008;-81
2024/04/19 09:49:16;;;;;;;2.10;0.70;;;12.00;99.90;;;;;;5369101;26;20336;-81
2024/04/19 09:51:47;;;;;;;2.33;0.77;;;12.10;99.90;;;;;;5348415;26;20026;-81
2024/04/19 09:54:13;;;;;;;1.55;0.63;;;12.20;99.90;;;;;;5327147;26;19997;-81
2024/04/19 09:56:40;;;;;;;1.45;0.70;;;12.20;99.90;;;;;;5328178;26;20001;-82
2024/04/19 09:59:09;;;;;;;1.52;0.43;;;12.20;99.90;;;;;;5329915;26;19997;-81
2024/04/19 10:01:38;;;;;;;1.45;0.43;;;12.20;99.90;;;;;;5326463;26;20094;-80
2024/04/19 10:04:08;;;;;;;0.52;0.40;;;12.20;99.90;;;;;;5303886;26;20674;-80
2024/04/19 10:06:37;;;;;;;1.35;0.40;;;12.20;99.90;;;;;;5360420;26;20447;-80
2024/04/19 10:09:08;;;;;;;3.08;0.70;;;12.20;99.90;;;;;;5319171;26;20054;-80
2024/04/19 10:11:35;;;;;;;0.85;0.40;;;12.20;99.90;;;;;;5371281;26;19996;-81
2024/04/19 10:14:01;;;;;;;0.55;0.30;;;12.20;99.90;;;;;;5344349;26;20005;-81
2024/04/19 10:16:27;;;;;;;1.60;0.50;;;12.30;99.90;;;;;;5334582;26;19998;-83
2024/04/19 10:18:53;;;;;;;0.40;0.30;;;12.30;99.90;;;;;;5356703;26;20016;-80
2024/04/19 10:21:18;;;;;;;0.32;0.28;;;12.40;99.90;;;;;;5324734;26;20005;-80
2024/04/19 10:23:46;;;;;;;0.60;0.28;;;12.50;99.90;;;;;;5307021;26;20000;-81
2024/04/19 10:26:12;;;;;;;0.70;0.40;;;12.60;99.90;;;;;;5339540;26;20001;-81
2024/04/19 10:28:37;;;;;;;0.50;0.40;;;12.70;99.90;;;;;;5308938;26;20353;-80
2024/04/19 10:31:05;;;;;;;0.52;0.13;;;12.70;99.90;;;;;;5317208;26;20374;-80
2024/04/19 10:33:31;;;;;;;0.30;0.30;;;12.70;99.90;;;;;;5349406;26;20012;-81
2024/04/19 10:35:57;;;;;;;1.83;0.30;;;12.70;99.90;;;;;;5353287;26;20043;-80
2024/04/19 10:38:24;;;;;;;0.40;0.40;;;12.70;99.90;;;;;;5362699;26;20005;-80
2024/04/19 10:40:53;;;;;;;0.35;0.28;;;12.70;99.90;;;;;;5369201;26;19997;-80
2024/04/19 10:43:18;;;;;;;0.75;0.40;;;12.60;99.90;;;;;;5339235;26;20008;-81
2024/04/19 10:45:44;;;;;;;1.00;0.52;;;12.60;99.90;;;;;;5362275;26;20002;-80
2024/04/19 10:48:10;;;;;;;1.33;0.60;;;12.60;99.90;;;;;;5323050;26;20448;-80
2024/04/19 10:50:36;;;;;;;1.42;0.43;;;12.60;99.90;;;;;;5345350;26;20425;-81
2024/04/19 10:53:01;;;;;;;1.88;0.73;;;12.60;99.90;;;;;;5303394;27;20014;-81
2024/04/19 10:55:28;;;;;;;1.63;0.60;;;12.60;99.90;;;;;;5289106;26;20006;-81
2024/04/19 10:57:55;;;;;;;2.03;0.50;;;12.70;99.90;;;;;;5279720;27;20016;-81
2024/04/19 11:00:22;;;;;;;1.20;0.55;;;12.80;99.90;;;;;;5335617;26;20005;-82
2024/04/19 11:02:48;;;;;;;0.93;0.45;;;12.90;99.90;;;;;;5343767;26;20012;-81
2024/04/19 11:05:15;;;;;;;1.33;0.60;;;12.70;99.90;;;;;;5271052;26;20012;-81
2024/04/19 11:07:43;;;;;;;1.52;0.40;;;12.10;99.90;;;;;;5320425;26;20016;-81
2024/04/19 11:10:09;;;;;;;0.85;0.30;;;11.60;99.90;;;;;;5315790;26;20351;-82
2024/04/19 11:12:35;;;;;;;1.60;0.50;;;11.30;99.90;;;;;;5344251;26;20005;-82
2024/04/19 11:15:02;;;;;;;1.55;0.63;;;11.20;99.90;;;;;;5340303;26;20301;-81
2024/04/19 11:17:28;;;;;;;2.20;0.50;;;11.00;99.90;;;;;;5332123;26;20012;-82
2024/04/19 11:19:53;;;;;;;0.82;0.30;;;10.80;99.90;;;;;;5346570;26;20001;-81
2024/04/19 11:22:19;;;;;;;1.30;0.52;;;10.70;99.90;;;;;;5345782;26;20460;-81
2024/04/19 11:24:45;;;;;;;0.82;0.45;;;10.70;99.90;;;;;;5345453;26;20009;-82
2024/04/19 11:27:12;;;;;;;0.40;0.30;;;10.60;99.90;;;;;;5316188;26;20704;-82
2024/04/19 11:29:38;;;;;;;2.17;0.85;;;10.60;99.90;;;;;;5342047;26;20507;-81
2024/04/19 11:32:07;;;;;;;1.67;0.50;;;10.70;99.90;;;;;;5349479;26;20013;-82
2024/04/19 11:34:36;;;;;;;1.50;0.40;;;10.80;99.90;;;;;;5314596;26;20068;-81
2024/04/19 11:37:03;;;;;;;1.80;0.70;;;10.90;99.90;;;;;;5340907;26;19993;-81
2024/04/19 11:39:33;;;;;;;0.93;0.60;;;10.90;99.90;;;;;;5338715;26;20456;-82
2024/04/19 11:42:01;;;;;;;1.48;0.50;;;10.90;99.90;;;;;;5346799;26;19993;-82
2024/04/19 11:44:27;;;;;;;2.15;0.60;;;10.90;99.90;;;;;;5314273;26;19993;-81
2024/04/19 11:46:54;;;;;;;4.80;0.93;;;11.00;99.90;;;;;;5287974;26;20032;-83
2024/04/19 11:49:19;;;;;;;2.67;0.73;;;11.00;99.90;;;;;;5310743;27;20349;-82
2024/04/19 11:51:45;;;;;;;0.77;0.30;;;10.90;99.90;;;;;;5256765;27;20029;-81
2024/04/19 11:54:11;;;;;;;1.85;0.60;;;10.80;99.90;;;;;;5286046;26;20009;-81
2024/04/19 11:56:37;;;;;;;0.60;0.30;;;10.80;99.90;;;;;;5340566;26;20036;-81
2024/04/19 11:59:03;;;;;;;0.65;0.40;;;10.80;99.90;;;;;;5324909;26;20424;-82
2024/04/19 12:01:28;;;;;;;1.58;0.65;;;10.70;99.90;;;;;;5318346;26;20000;-81
2024/04/19 12:03:55;;;;;;;2.13;0.50;;;10.60;99.90;;;;;;5318804;26;20015;-82
2024/04/19 12:06:21;;;;;;;2.65;0.75;;;10.60;99.90;;;;;;5318439;26;19997;-82
2024/04/19 12:08:51;;;;;;;3.58;0.80;;;10.50;99.90;;;;;;5331260;26;20001;-83
2024/04/19 12:11:20;;;;;;;2.08;0.68;;;10.50;99.90;;;;;;5340053;26;20016;-81
2024/04/19 12:13:47;;;;;;;2.95;0.65;;;10.50;99.90;;;;;;5368991;26;20000;-81
2024/04/19 12:16:13;;;;;;;2.58;1.00;;;10.50;99.90;;;;;;5337378;26;20005;-82
2024/04/19 12:18:39;;;;;;;3.28;1.10;;;10.60;99.90;;;;;;5351223;26;20075;-82
2024/04/19 12:21:05;;;;;;;3.80;1.27;;;10.80;99.90;;;;;;5346924;26;20652;-81
2024/04/19 12:23:31;;;;;;;2.78;0.82;;;10.90;99.90;;;;;;5346449;26;20417;-81
2024/04/19 12:25:56;;;;;;;2.33;0.80;;;11.10;99.90;;;;;;5348057;26;20009;-82
2024/04/19 12:28:24;;;;;;;2.72;1.00;;;11.10;99.90;;;;;;5341777;26;19993;-82
2024/04/19 12:30:51;;;;;;;4.90;0.95;;;11.20;99.90;;;;;;5288296;26;20009;-82
2024/04/19 12:33:17;;;;;;;3.63;0.90;;;11.10;99.90;;;;;;5348258;26;20013;-81
2024/04/19 12:35:43;;;;;;;3.47;0.68;;;10.90;99.90;;;;;;5316632;26;20019;-82
2024/04/19 12:38:09;;;;;;;3.30;1.08;;;10.80;99.90;;;;;;5318026;26;20498;-82
2024/04/19 12:40:35;;;;;;;1.85;0.90;;;10.70;99.90;;;;;;5372160;26;20012;-83
2024/04/19 12:43:01;;;;;;;1.00;0.50;;;10.60;99.90;;;;;;5319538;26;19997;-82
2024/04/19 12:45:27;;;;;;;1.35;0.50;;;10.50;99.90;;;;;;5380022;26;20008;-83
2024/04/19 12:48:10;;;;;;;2.70;0.77;;;10.50;99.90;;;;;;5322255;26;20007;-83
2024/04/19 12:50:36;;;;;;;1.95;0.60;;;10.60;99.90;;;;;;5335602;26;20315;-82
2024/04/19 12:53:03;;;;;;;3.20;0.70;;;10.60;99.90;;;;;;5348147;26;20005;-82